Terminal Aerodrome Forecast
Issued by NWS

Home | Current Version | Previous Version | Text Only | Print | Product List | Glossary On
Versions: 1 2 3 4 5 6 7 8 9 10 11 12 13 14 15 16 17 18 19 20
000
FTUS46 KLOX 312349
TAFSBP
TAF
KSBP 312349Z 0100/0124 31016G22KT P6SM SKC
     FM010200 31008KT P6SM SKC
     FM010400 31006KT P6SM BKN012
     FM010600 VRB03KT 6SM BR OVC007
     FM011000 00000KT 4SM BR OVC004
     FM011530 VRB03KT 5SM BR BKN007
     FM011700 27006KT P6SM SCT012
     FM012000 31012KT P6SM SKC=

USA.gov is the U.S. government's official web portal to all federal, state and local government web resources and services.